createdAt,value
2022-12-23T00:02:56.914Z,8.60
2022-12-23T00:05:23.709Z,8.10
2022-12-23T00:07:50.383Z,8.00
2022-12-23T00:50:59.305Z,8.00
2022-12-23T00:53:26.459Z,7.50
2022-12-23T00:55:53.250Z,7.60
2022-12-23T00:58:20.953Z,7.50
2022-12-23T01:01:06.775Z,7.50
2022-12-23T01:03:52.574Z,7.50
2022-12-23T01:06:19.239Z,7.50
2022-12-23T01:08:45.867Z,7.50
2022-12-23T01:11:12.999Z,7.50
2022-12-23T01:13:40.035Z,7.50
2022-12-23T01:16:16.946Z,7.50
2022-12-23T01:18:45.082Z,7.50
2022-12-23T01:21:12.170Z,7.50
2022-12-23T01:23:39.083Z,7.50
2022-12-23T01:26:07.543Z,7.50
2022-12-23T01:28:35.060Z,7.50
2022-12-23T01:31:03.163Z,7.50
2022-12-23T01:33:30.749Z,7.60
2022-12-23T01:36:05.560Z,7.60
2022-12-23T01:38:33.036Z,7.70
2022-12-23T01:41:00.060Z,7.90
2022-12-23T01:43:46.507Z,7.90
2022-12-23T01:46:14.676Z,7.90
2022-12-23T01:48:46.901Z,8.00
2022-12-23T01:51:19.806Z,7.90
2022-12-23T01:53:50.210Z,7.90
2022-12-23T01:56:23.998Z,7.90
2022-12-23T01:58:53.064Z,7.90
2022-12-23T02:01:38.235Z,7.90
2022-12-23T02:04:08.992Z,7.90
2022-12-23T02:06:59.737Z,7.90
2022-12-23T02:09:28.898Z,7.80
2022-12-23T02:12:26.798Z,7.80
2022-12-23T02:15:44.004Z,7.80
2022-12-23T02:18:25.494Z,7.80
2022-12-23T02:21:12.628Z,7.90
2022-12-23T02:23:58.208Z,7.80
2022-12-23T02:26:59.912Z,7.90
2022-12-23T02:29:54.008Z,8.00
2022-12-23T02:32:29.883Z,8.10
2022-12-23T02:40:38.599Z,8.20
2022-12-23T02:45:54.799Z,8.60
2022-12-23T02:48:46.190Z,8.70
2022-12-23T02:51:15.040Z,8.80
2022-12-23T02:53:52.531Z,8.80
2022-12-23T02:56:22.023Z,8.80
2022-12-23T03:30:16.571Z,8.90
2022-12-23T03:32:59.320Z,9.60
2022-12-23T03:35:31.444Z,9.60
2022-12-23T03:37:59.077Z,9.60
2022-12-23T03:40:30.540Z,9.60
2022-12-23T03:43:03.005Z,9.70
2022-12-23T03:45:41.742Z,9.70
2022-12-23T03:48:23.917Z,9.70
2022-12-23T03:50:56.829Z,9.80
2022-12-23T03:53:35.853Z,9.80
2022-12-23T03:56:11.649Z,9.80
2022-12-23T03:58:45.448Z,9.90
2022-12-23T04:01:50.364Z,9.80
2022-12-23T04:04:34.056Z,9.80
2022-12-23T04:07:06.228Z,9.90
2022-12-23T04:09:34.816Z,9.90
2022-12-23T04:12:01.699Z,9.90
2022-12-23T04:14:28.351Z,9.90
2022-12-23T04:16:58.175Z,9.90
2022-12-23T04:19:25.451Z,9.90
2022-12-23T04:21:54.768Z,10.00
2022-12-23T04:24:21.500Z,9.90
2022-12-23T04:26:48.113Z,9.90
2022-12-23T04:29:14.739Z,9.90
2022-12-23T04:31:41.437Z,9.90
2022-12-23T04:34:08.048Z,9.90
2022-12-23T04:36:34.694Z,10.00
2022-12-23T04:39:01.282Z,9.90
2022-12-23T04:41:27.896Z,10.00
2022-12-23T04:43:54.508Z,10.00
2022-12-23T04:46:21.216Z,10.10
2022-12-23T04:48:47.884Z,10.10
2022-12-23T04:51:14.603Z,10.20
2022-12-23T04:53:41.224Z,10.20
2022-12-23T04:56:07.914Z,10.10
2022-12-23T04:58:34.529Z,10.20
2022-12-23T05:01:09.251Z,10.20
2022-12-23T05:03:37.081Z,10.30
2022-12-23T05:06:04.467Z,10.20
2022-12-23T05:08:31.109Z,10.20
2022-12-23T05:10:58.036Z,10.30
2022-12-23T05:13:24.946Z,10.20
2022-12-23T05:15:53.168Z,10.20
2022-12-23T05:18:20.452Z,10.30
2022-12-23T10:22:10.032Z,10.30
2022-12-23T18:44:32.638Z,11.80
2022-12-23T18:46:59.338Z,11.50
2022-12-23T18:49:26.013Z,11.50
2022-12-23T20:58:54.573Z,11.50
2022-12-23T21:01:35.295Z,11.60
2022-12-23T21:21:30.979Z,11.50
2022-12-23T21:24:01.388Z,11.00
2022-12-23T21:31:27.807Z,10.60
2022-12-23T21:33:54.981Z,9.80
2022-12-23T22:08:38.668Z,9.70
2022-12-23T22:13:44.266Z,10.10
2022-12-23T22:16:13.442Z,10.40
2022-12-23T22:18:41.040Z,10.50
